createdAt,value
2022-10-02T00:00:18.195Z,12.50
2022-10-02T00:03:00.283Z,12.50
2022-10-02T00:05:41.108Z,12.50
2022-10-02T00:08:30.033Z,12.50
2022-10-02T00:11:17.437Z,12.50
2022-10-02T00:13:53.952Z,12.60
2022-10-02T00:16:25.683Z,12.60
2022-10-02T00:18:54.951Z,12.60
2022-10-02T00:21:36.500Z,12.60
2022-10-02T00:24:08.771Z,12.50
2022-10-02T00:26:50.886Z,12.50
2022-10-02T00:29:37.888Z,12.50
2022-10-02T00:32:19.816Z,12.50
2022-10-02T00:35:21.382Z,12.50
2022-10-02T00:38:32.051Z,12.50
2022-10-02T00:44:36.649Z,12.50
2022-10-02T00:47:18.534Z,12.50
2022-10-02T00:50:12.573Z,12.60
2022-10-02T00:53:17.585Z,12.60
2022-10-02T00:56:39.711Z,12.60
2022-10-02T00:59:28.433Z,12.70
2022-10-02T01:02:32.132Z,12.70
2022-10-02T01:05:05.679Z,12.70
2022-10-02T01:07:37.627Z,12.70
2022-10-02T01:10:04.698Z,12.80
2022-10-02T01:12:31.411Z,12.80
2022-10-02T01:15:19.319Z,12.80
2022-10-02T01:17:48.354Z,12.80
2022-10-02T01:20:18.644Z,12.80
2022-10-02T01:23:16.614Z,12.90
2022-10-02T01:25:43.749Z,12.90
2022-10-02T01:28:19.309Z,12.90
2022-10-02T01:31:01.393Z,12.90
2022-10-02T01:33:28.160Z,12.90
2022-10-02T01:36:01.409Z,12.90
2022-10-02T01:38:30.981Z,12.90
2022-10-02T01:41:00.858Z,12.90
2022-10-02T01:43:46.740Z,12.90
2022-10-02T01:46:35.815Z,12.90
2022-10-02T01:49:19.457Z,12.80
2022-10-02T01:51:54.615Z,12.80
2022-10-02T01:54:43.133Z,12.80
2022-10-02T01:57:28.436Z,12.80
2022-10-02T02:00:13.821Z,12.80
2022-10-02T02:03:15.226Z,12.80
2022-10-02T02:05:44.561Z,12.80
2022-10-02T02:08:23.703Z,12.80
2022-10-02T02:10:55.422Z,12.90
2022-10-02T02:13:28.872Z,12.90
2022-10-02T02:16:19.850Z,12.90
2022-10-02T02:18:57.661Z,12.90
2022-10-02T02:21:47.659Z,12.90
2022-10-02T02:24:32.885Z,12.90
2022-10-02T02:27:02.134Z,12.90
2022-10-02T02:29:33.668Z,13.00
2022-10-02T02:32:04.189Z,13.00
2022-10-02T02:34:42.660Z,13.00
2022-10-02T02:37:13.911Z,13.00
2022-10-02T02:39:45.283Z,13.00
2022-10-02T02:42:26.198Z,13.00
2022-10-02T02:45:06.922Z,13.00
2022-10-02T02:47:49.149Z,13.00
2022-10-02T02:50:22.869Z,13.00
2022-10-02T02:52:56.567Z,12.90
2022-10-02T02:58:59.838Z,12.90
2022-10-02T03:01:29.417Z,12.80
2022-10-02T03:03:56.199Z,12.80
2022-10-02T03:06:32.062Z,12.80
2022-10-02T03:09:11.124Z,12.80
2022-10-02T03:11:49.621Z,12.70
2022-10-02T03:14:42.770Z,12.70
2022-10-02T03:17:34.100Z,12.70
2022-10-02T03:20:09.953Z,12.70
2022-10-02T03:22:46.628Z,12.70
2022-10-02T03:25:23.781Z,12.70
2022-10-02T03:28:04.936Z,12.70
2022-10-02T03:30:32.758Z,12.70
2022-10-02T03:33:02.998Z,12.60
2022-10-02T03:35:40.391Z,12.60
2022-10-02T03:38:11.881Z,12.60
2022-10-02T03:40:45.987Z,12.50
2022-10-02T03:43:22.399Z,12.50
2022-10-02T03:45:51.744Z,12.50
2022-10-02T03:48:18.864Z,12.40
2022-10-02T03:50:48.933Z,12.50
2022-10-02T03:53:21.012Z,12.40
2022-10-02T03:56:06.141Z,12.40
2022-10-02T03:58:39.346Z,12.40
2022-10-02T04:01:10.165Z,12.40
2022-10-02T04:03:51.171Z,12.40
2022-10-02T04:09:56.726Z,12.40
2022-10-02T04:12:30.077Z,12.40
2022-10-02T04:15:35.415Z,12.40
2022-10-02T04:18:11.445Z,12.30
2022-10-02T04:27:42.265Z,12.30
2022-10-02T04:30:17.510Z,12.30
2022-10-02T04:32:48.097Z,12.20
2022-10-02T04:35:25.778Z,12.20
2022-10-02T04:41:08.573Z,12.20
2022-10-02T04:44:10.715Z,12.10
2022-10-02T04:46:58.969Z,12.10
2022-10-02T04:50:10.868Z,12.10
2022-10-02T04:52:52.880Z,12.10
2022-10-02T04:59:17.912Z,12.10
2022-10-02T05:02:22.016Z,12.10
2022-10-02T05:08:15.728Z,12.10
2022-10-02T05:11:19.552Z,12.10
2022-10-02T05:14:12.575Z,12.10
2022-10-02T05:16:45.958Z,12.10
2022-10-02T05:19:49.864Z,12.20
2022-10-02T05:22:31.901Z,12.10
2022-10-02T05:25:35.327Z,12.10
2022-10-02T05:28:39.192Z,12.10
2022-10-02T05:31:07.885Z,12.10
2022-10-02T05:36:42.345Z,12.20
2022-10-02T05:39:18.945Z,12.10
2022-10-02T05:41:54.368Z,12.10
2022-10-02T05:47:43.268Z,12.00
2022-10-02T05:50:27.405Z,12.00
2022-10-02T05:53:38.553Z,12.00
2022-10-02T05:56:19.991Z,11.90
2022-10-02T05:59:21.733Z,11.90
2022-10-02T06:05:06.960Z,11.90
2022-10-02T06:07:34.109Z,11.90
2022-10-02T06:10:10.937Z,11.90
2022-10-02T06:12:47.996Z,11.90
2022-10-02T06:18:27.671Z,12.00
2022-10-02T06:21:26.837Z,12.00
2022-10-02T06:23:58.545Z,12.00
2022-10-02T06:26:38.168Z,12.00
2022-10-02T06:29:41.361Z,12.00
2022-10-02T06:32:29.624Z,12.10
2022-10-02T06:35:10.991Z,12.10
2022-10-02T06:37:43.467Z,12.10
2022-10-02T06:40:25.150Z,12.20
2022-10-02T06:43:20.933Z,12.20
2022-10-02T06:46:21.576Z,12.30
2022-10-02T06:49:04.437Z,12.30
2022-10-02T06:51:37.652Z,12.30
2022-10-02T06:54:29.096Z,12.40
2022-10-02T06:57:36.635Z,12.50
2022-10-02T07:00:12.217Z,12.60
2022-10-02T07:03:00.765Z,12.60
2022-10-02T07:09:35.118Z,12.80
2022-10-02T07:12:42.566Z,12.90
2022-10-02T07:15:47.920Z,13.00
2022-10-02T07:18:49.213Z,13.10
2022-10-02T07:25:04.723Z,13.20
2022-10-02T07:28:01.802Z,13.30
2022-10-02T07:30:42.918Z,13.30
2022-10-02T07:33:35.361Z,13.40
2022-10-02T07:36:40.744Z,13.40
2022-10-02T07:39:38.378Z,13.50
2022-10-02T07:42:11.449Z,13.60
2022-10-02T07:44:57.887Z,13.70
2022-10-02T07:47:32.259Z,13.80
2022-10-02T07:50:16.905Z,13.90
2022-10-02T07:53:14.549Z,14.00
2022-10-02T07:55:53.596Z,14.10
2022-10-02T07:58:25.998Z,14.30
2022-10-02T08:01:00.336Z,14.60
2022-10-02T08:03:46.680Z,14.70
2022-10-02T08:06:37.200Z,14.80
2022-10-02T08:09:16.363Z,14.80
2022-10-02T08:11:50.644Z,14.80
2022-10-02T08:14:47.494Z,14.80
2022-10-02T08:20:36.489Z,15.00
2022-10-02T08:23:29.196Z,15.00
2022-10-02T08:26:15.131Z,15.10
2022-10-02T08:29:24.465Z,15.20
2022-10-02T08:32:14.014Z,15.30
2022-10-02T08:34:43.119Z,15.30
2022-10-02T08:37:44.660Z,15.50
2022-10-02T08:40:46.362Z,15.60
2022-10-02T08:43:49.956Z,15.80
2022-10-02T08:46:49.704Z,15.90
2022-10-02T08:49:59.319Z,16.00
2022-10-02T08:52:54.493Z,16.10
2022-10-02T08:55:55.669Z,16.10
2022-10-02T09:02:24.931Z,16.20
2022-10-02T09:05:24.248Z,16.10
2022-10-02T09:08:32.801Z,16.20
2022-10-02T09:11:31.544Z,16.10
2022-10-02T09:14:11.810Z,16.10
2022-10-02T09:17:30.264Z,16.00
2022-10-02T09:20:31.480Z,16.00
2022-10-02T09:23:28.914Z,16.10
2022-10-02T09:26:30.117Z,16.20
2022-10-02T09:32:33.592Z,16.20
2022-10-02T09:35:35.358Z,16.30
2022-10-02T09:38:39.087Z,16.60
2022-10-02T09:41:18.331Z,16.90
2022-10-02T09:44:37.295Z,17.10
2022-10-02T09:47:42.700Z,17.50
2022-10-02T09:50:24.116Z,17.90
2022-10-02T09:53:15.768Z,18.10
2022-10-02T09:56:16.670Z,18.20
2022-10-02T09:59:02.120Z,18.20
2022-10-02T10:05:22.889Z,17.60
2022-10-02T10:08:26.935Z,17.20
2022-10-02T10:11:02.325Z,16.90
2022-10-02T10:13:58.479Z,16.80
2022-10-02T10:16:33.774Z,16.70
2022-10-02T10:19:37.390Z,16.70
2022-10-02T10:25:57.762Z,16.80
2022-10-02T10:32:35.985Z,17.20
2022-10-02T10:35:39.252Z,17.60
2022-10-02T10:45:21.594Z,18.30
2022-10-02T10:47:57.297Z,18.20
2022-10-02T10:50:47.893Z,18.20
2022-10-02T10:53:21.653Z,18.30
2022-10-02T10:59:30.743Z,18.00
2022-10-02T11:02:23.356Z,18.00
2022-10-02T11:04:58.932Z,18.30
2022-10-02T11:10:43.605Z,18.40
2022-10-02T11:13:47.964Z,18.30
2022-10-02T11:16:42.541Z,18.20
2022-10-02T11:19:42.988Z,18.20
2022-10-02T11:22:53.405Z,18.30
2022-10-02T11:35:51.153Z,18.70
2022-10-02T11:41:54.036Z,18.40
2022-10-02T11:48:28.181Z,17.60
2022-10-02T11:51:06.202Z,17.30
2022-10-02T11:57:03.277Z,17.20
2022-10-02T11:59:56.629Z,17.30
2022-10-02T12:02:58.387Z,17.30
2022-10-02T12:06:06.522Z,17.30
2022-10-02T12:09:07.604Z,17.50
2022-10-02T12:11:37.146Z,17.60
2022-10-02T12:14:18.813Z,17.80
2022-10-02T12:17:21.074Z,17.90
2022-10-02T12:20:18.328Z,18.00
2022-10-02T12:23:14.203Z,18.00
2022-10-02T12:26:09.453Z,18.10
2022-10-02T12:28:49.095Z,18.20
2022-10-02T12:31:41.504Z,18.30
2022-10-02T12:34:34.828Z,18.00
2022-10-02T12:37:42.497Z,17.60
2022-10-02T12:43:41.729Z,17.20
2022-10-02T12:46:42.808Z,17.20
2022-10-02T12:49:41.213Z,17.30
2022-10-02T12:52:38.812Z,17.20
2022-10-02T12:55:43.261Z,17.10
2022-10-02T12:58:19.938Z,17.10
2022-10-02T13:01:20.036Z,17.10
2022-10-02T13:04:18.140Z,17.30
2022-10-02T13:07:22.960Z,17.60
2022-10-02T13:10:18.013Z,17.70
2022-10-02T13:29:32.378Z,17.80
2022-10-02T13:32:34.078Z,17.90
2022-10-02T13:35:40.359Z,18.00
2022-10-02T13:38:44.584Z,17.90
2022-10-02T13:44:43.063Z,17.40
2022-10-02T13:53:49.358Z,17.40
2022-10-02T13:56:26.734Z,17.40
2022-10-02T13:59:20.815Z,17.50
2022-10-02T14:01:59.309Z,17.50
2022-10-02T14:04:32.580Z,17.50
2022-10-02T14:11:04.397Z,17.60
2022-10-02T14:17:31.077Z,17.80
2022-10-02T14:20:29.240Z,17.90
2022-10-02T14:23:33.549Z,17.80
2022-10-02T14:26:38.441Z,17.70
2022-10-02T14:32:52.753Z,17.60
2022-10-02T14:35:24.484Z,17.70
2022-10-02T14:38:20.534Z,17.60
2022-10-02T14:40:57.557Z,17.50
2022-10-02T14:50:59.575Z,17.40
2022-10-02T14:53:54.051Z,17.30
2022-10-02T14:56:31.559Z,17.30
2022-10-02T14:59:58.013Z,17.10
2022-10-02T15:02:30.278Z,17.10
2022-10-02T15:05:35.682Z,17.10
2022-10-02T15:11:05.390Z,17.00
2022-10-02T15:17:37.022Z,16.80
2022-10-02T15:20:34.037Z,16.80
2022-10-02T15:23:11.485Z,16.70
2022-10-02T15:26:09.653Z,16.70
2022-10-02T15:29:24.749Z,16.70
2022-10-02T15:35:21.861Z,16.70
2022-10-02T15:37:54.312Z,16.70
2022-10-02T15:40:48.957Z,16.60
2022-10-02T15:43:51.827Z,16.60
2022-10-02T15:46:56.668Z,16.50
2022-10-02T15:50:34.755Z,16.40
2022-10-02T15:53:29.813Z,16.30
2022-10-02T15:59:26.806Z,16.10
2022-10-02T16:02:39.508Z,16.10
2022-10-02T16:05:32.284Z,16.10
2022-10-02T16:08:29.739Z,16.00
2022-10-02T16:11:33.659Z,15.90
2022-10-02T16:14:37.965Z,15.90
2022-10-02T16:17:31.843Z,15.80
2022-10-02T16:20:36.284Z,15.70
2022-10-02T16:23:44.628Z,15.70
2022-10-02T16:26:36.743Z,15.60
2022-10-02T16:29:36.272Z,15.60
2022-10-02T16:32:44.365Z,15.50
2022-10-02T16:35:46.658Z,15.50
2022-10-02T16:38:46.846Z,15.30
2022-10-02T16:44:50.747Z,15.20
2022-10-02T16:47:26.230Z,15.20
2022-10-02T16:50:52.013Z,15.10
2022-10-02T16:57:27.875Z,14.90
2022-10-02T17:00:22.851Z,14.80
2022-10-02T17:03:00.382Z,14.70
2022-10-02T17:05:53.191Z,14.60
2022-10-02T17:08:47.859Z,14.60
2022-10-02T17:15:14.428Z,14.50
2022-10-02T17:20:46.235Z,14.40
2022-10-02T17:23:41.996Z,14.30
2022-10-02T17:26:22.587Z,14.30
2022-10-02T17:29:07.908Z,14.20
2022-10-02T17:31:50.399Z,14.20
2022-10-02T17:35:07.395Z,14.10
2022-10-02T17:38:15.494Z,14.00
2022-10-02T17:40:53.667Z,14.00
2022-10-02T17:46:20.034Z,13.80
2022-10-02T17:48:55.560Z,13.80
2022-10-02T17:51:54.609Z,13.70
2022-10-02T17:54:32.164Z,13.60
2022-10-02T18:00:08.271Z,13.50
2022-10-02T18:02:37.878Z,13.40
2022-10-02T18:05:40.775Z,13.40
2022-10-02T18:08:47.911Z,13.30
2022-10-02T18:11:51.128Z,13.30
2022-10-02T18:14:51.685Z,13.20
2022-10-02T18:17:24.919Z,13.20
2022-10-02T18:20:12.116Z,13.10
2022-10-02T18:23:16.060Z,13.10
2022-10-02T18:26:20.919Z,13.00
2022-10-02T18:56:29.720Z,12.50
2022-10-02T18:59:11.028Z,12.50
2022-10-02T19:01:51.165Z,12.40
2022-10-02T19:04:38.543Z,12.40
2022-10-02T19:07:43.889Z,12.30
2022-10-02T19:14:06.600Z,12.30
2022-10-02T19:18:00.121Z,12.10
2022-10-02T19:21:10.055Z,12.00
2022-10-02T19:33:37.979Z,11.80
2022-10-02T19:36:31.006Z,11.80
2022-10-02T21:07:58.167Z,10.70
2022-10-02T21:14:21.819Z,10.70
2022-10-02T21:17:29.726Z,10.60
2022-10-02T21:20:05.166Z,10.60
2022-10-02T21:23:02.968Z,10.60
2022-10-02T21:25:35.847Z,10.50
2022-10-02T21:28:26.430Z,10.50
2022-10-02T21:31:30.123Z,10.50
2022-10-02T21:34:07.884Z,10.50
2022-10-02T21:36:49.288Z,10.50
2022-10-02T21:39:47.580Z,10.50
2022-10-02T21:42:22.969Z,10.50
2022-10-02T21:45:20.190Z,10.40
2022-10-02T21:48:43.840Z,10.40
2022-10-02T21:51:13.087Z,10.30
2022-10-02T21:54:17.648Z,10.30
2022-10-02T21:56:59.096Z,10.30
2022-10-02T21:59:49.999Z,10.30
2022-10-02T22:02:25.403Z,10.20
2022-10-02T22:05:10.783Z,10.20
2022-10-02T22:08:02.665Z,10.20
2022-10-02T22:11:01.831Z,10.20
2022-10-02T22:13:36.974Z,10.10
2022-10-02T22:16:22.679Z,10.10
2022-10-02T22:18:57.252Z,10.10
2022-10-02T22:21:58.257Z,10.10
2022-10-02T22:24:59.682Z,10.10
2022-10-02T22:27:45.279Z,10.10
2022-10-02T22:31:00.286Z,10.10
2022-10-02T22:33:45.147Z,10.10
2022-10-02T22:36:32.823Z,10.10
2022-10-02T22:39:31.772Z,10.10
2022-10-02T22:45:10.739Z,10.00
2022-10-02T22:47:47.213Z,9.90
2022-10-02T22:50:27.611Z,9.90
2022-10-02T22:52:59.105Z,9.90
2022-10-02T22:59:05.441Z,9.80
2022-10-02T23:01:43.950Z,9.80
2022-10-02T23:04:37.439Z,9.70
2022-10-02T23:07:12.385Z,9.70
2022-10-02T23:10:12.044Z,9.70
2022-10-02T23:12:54.086Z,9.60
2022-10-02T23:15:45.589Z,9.60
2022-10-02T23:18:36.332Z,9.60
2022-10-02T23:21:20.989Z,9.60
2022-10-02T23:24:02.123Z,9.50
2022-10-02T23:26:47.192Z,9.50
2022-10-02T23:29:27.841Z,9.50
2022-10-02T23:32:03.877Z,9.50
2022-10-02T23:35:08.233Z,9.50
2022-10-02T23:37:53.204Z,9.50
2022-10-02T23:40:30.701Z,9.40
2022-10-02T23:43:02.640Z,9.40
2022-10-02T23:45:56.018Z,9.40
2022-10-02T23:48:23.183Z,9.40
2022-10-02T23:51:06.661Z,9.40
2022-10-02T23:54:02.277Z,9.40
2022-10-02T23:56:52.768Z,9.40
2022-10-02T23:59:29.393Z,9.30
